TimeMDT,TemperatureF,Dew PointF,Humidity,Sea Level PressureIn,VisibilityMPH,Wind Direction,Wind SpeedMPH,Gust SpeedMPH,PrecipitationIn,Events,Conditions,WindDirDegrees,DateUTC
12:53 AM,43.0,28.9,58,30.16,10.0,SE,5.8,-,N/A,,Clear,140,2012-10-19 06:53:00
1:53 AM,43.0,30.0,60,30.16,10.0,SSW,3.5,-,N/A,,Partly Cloudy,200,2012-10-19 07:53:00
2:53 AM,42.1,30.9,65,30.13,10.0,SSE,8.1,-,N/A,,Partly Cloudy,150,2012-10-19 08:53:00
3:53 AM,44.1,28.9,55,30.10,10.0,SE,10.4,-,N/A,,Clear,140,2012-10-19 09:53:00
4:53 AM,42.1,28.9,60,30.11,10.0,ESE,8.1,-,N/A,,Partly Cloudy,110,2012-10-19 10:53:00
5:53 AM,43.0,28.9,58,30.10,10.0,ESE,6.9,-,N/A,,Partly Cloudy,120,2012-10-19 11:53:00
6:53 AM,45.0,30.0,56,30.10,10.0,Calm,Calm,-,N/A,,Partly Cloudy,0,2012-10-19 12:53:00
7:53 AM,41.0,30.9,67,30.12,10.0,SE,8.1,-,N/A,,Mostly Cloudy,130,2012-10-19 13:53:00
8:53 AM,46.0,30.9,56,30.12,10.0,SE,6.9,-,N/A,,Scattered Clouds,140,2012-10-19 14:53:00
9:53 AM,52.0,30.9,45,30.11,10.0,ESE,5.8,-,N/A,,Scattered Clouds,110,2012-10-19 15:53:00
10:53 AM,57.0,30.0,36,30.09,10.0,South,4.6,-,N/A,,Scattered Clouds,170,2012-10-19 16:53:00
11:53 AM,61.0,28.0,29,30.07,10.0,South,4.6,-,N/A,,Scattered Clouds,170,2012-10-19 17:53:00
12:53 PM,64.0,27.0,25,30.04,10.0,Variable,3.5,-,N/A,,Scattered Clouds,0,2012-10-19 18:53:00
1:53 PM,68.0,27.0,21,29.99,10.0,SSE,4.6,-,N/A,,Mostly Cloudy,160,2012-10-19 19:53:00
2:53 PM,69.1,27.0,21,29.97,10.0,Calm,Calm,-,N/A,,Mostly Cloudy,0,2012-10-19 20:53:00
3:53 PM,70.0,27.0,20,29.94,10.0,Calm,Calm,-,N/A,,Mostly Cloudy,0,2012-10-19 21:53:00
4:53 PM,68.0,33.1,27,29.94,10.0,NNW,6.9,-,N/A,,Mostly Cloudy,340,2012-10-19 22:53:00
5:53 PM,68.0,35.1,30,29.92,10.0,North,5.8,-,N/A,,Mostly Cloudy,350,2012-10-19 23:53:00
6:53 PM,62.1,36.0,38,29.90,10.0,Calm,Calm,-,N/A,,Mostly Cloudy,0,2012-10-20 00:53:00
7:53 PM,57.9,37.0,46,29.91,10.0,SE,3.5,-,N/A,,Scattered Clouds,140,2012-10-20 01:53:00
8:53 PM,57.0,30.9,37,29.88,10.0,SE,9.2,-,N/A,,Scattered Clouds,130,2012-10-20 02:53:00
9:53 PM,55.9,30.0,37,29.86,10.0,SE,8.1,-,N/A,,Scattered Clouds,130,2012-10-20 03:53:00
10:53 PM,55.9,28.9,36,29.83,10.0,SE,9.2,-,N/A,,Mostly Cloudy,140,2012-10-20 04:53:00
11:53 PM,57.9,30.9,36,29.81,10.0,SE,13.8,-,N/A,,Mostly Cloudy,140,2012-10-20 05:53:00